sensor_id;sensor_type;location;lat;lon;timestamp;temperature;humidity
21682;DHT22;11002;48.256;10.084;2024-01-15T00:00:38;-1.90;89.30
21682;DHT22;11002;48.256;10.084;2024-01-15T00:03:05;-1.80;88.90
21682;DHT22;11002;48.256;10.084;2024-01-15T00:05:33;-2.00;86.80
21682;DHT22;11002;48.256;10.084;2024-01-15T00:08:01;-2.00;86.30
21682;DHT22;11002;48.256;10.084;2024-01-15T00:10:28;-2.10;86.40
21682;DHT22;11002;48.256;10.084;2024-01-15T00:12:56;-2.20;86.40
21682;DHT22;11002;48.256;10.084;2024-01-15T00:15:23;-2.30;86.50
21682;DHT22;11002;48.256;10.084;2024-01-15T00:17:51;-2.30;86.40
21682;DHT22;11002;48.256;10.084;2024-01-15T00:20:18;-2.10;86.70
21682;DHT22;11002;48.256;10.084;2024-01-15T00:22:45;-2.10;86.80
21682;DHT22;11002;48.256;10.084;2024-01-15T00:25:14;-2.20;86.50
21682;DHT22;11002;48.256;10.084;2024-01-15T00:27:41;-2.30;86.00
21682;DHT22;11002;48.256;10.084;2024-01-15T00:30:09;-2.10;85.80
21682;DHT22;11002;48.256;10.084;2024-01-15T00:32:36;-2.20;85.70
21682;DHT22;11002;48.256;10.084;2024-01-15T00:35:04;-2.50;85.90
21682;DHT22;11002;48.256;10.084;2024-01-15T00:37:32;-2.40;85.90
21682;DHT22;11002;48.256;10.084;2024-01-15T00:39:59;-2.10;86.50
21682;DHT22;11002;48.256;10.084;2024-01-15T00:42:28;-2.30;86.40
21682;DHT22;11002;48.256;10.084;2024-01-15T00:44:55;-2.30;86.60
21682;DHT22;11002;48.256;10.084;2024-01-15T00:47:22;-2.10;86.80
21682;DHT22;11002;48.256;10.084;2024-01-15T00:49:50;-2.10;87.00
21682;DHT22;11002;48.256;10.084;2024-01-15T00:52:17;-2.30;86.70
21682;DHT22;11002;48.256;10.084;2024-01-15T00:54:44;-2.20;86.30
21682;DHT22;11002;48.256;10.084;2024-01-15T00:57:11;-2.30;86.00
21682;DHT22;11002;48.256;10.084;2024-01-15T00:59:40;-2.20;85.80
21682;DHT22;11002;48.256;10.084;2024-01-15T01:02:07;-2.30;85.70
21682;DHT22;11002;48.256;10.084;2024-01-15T01:04:34;-2.10;85.10
21682;DHT22;11002;48.256;10.084;2024-01-15T01:07:02;-2.20;83.90
21682;DHT22;11002;48.256;10.084;2024-01-15T01:09:29;-2.10;82.60
21682;DHT22;11002;48.256;10.084;2024-01-15T01:11:56;-2.10;81.40
21682;DHT22;11002;48.256;10.084;2024-01-15T01:14:23;-2.20;79.80
21682;DHT22;11002;48.256;10.084;2024-01-15T01:16:52;-2.30;78.50
21682;DHT22;11002;48.256;10.084;2024-01-15T01:19:19;-2.40;78.70
21682;DHT22;11002;48.256;10.084;2024-01-15T01:21:46;-2.10;78.20
21682;DHT22;11002;48.256;10.084;2024-01-15T01:24:13;-2.00;77.60
21682;DHT22;11002;48.256;10.084;2024-01-15T01:26:41;-2.00;77.10
21682;DHT22;11002;48.256;10.084;2024-01-15T01:29:08;-2.20;76.00
21682;DHT22;11002;48.256;10.084;2024-01-15T01:31:35;-2.20;76.00
21682;DHT22;11002;48.256;10.084;2024-01-15T01:34:04;-2.20;76.20
21682;DHT22;11002;48.256;10.084;2024-01-15T01:36:31;-2.30;76.50
21682;DHT22;11002;48.256;10.084;2024-01-15T01:38:59;-2.00;76.80
21682;DHT22;11002;48.256;10.084;2024-01-15T01:41:26;-2.00;76.50
21682;DHT22;11002;48.256;10.084;2024-01-15T01:43:53;-2.20;76.60
21682;DHT22;11002;48.256;10.084;2024-01-15T01:46:21;-2.10;76.30
21682;DHT22;11002;48.256;10.084;2024-01-15T01:48:48;-1.80;76.10
21682;DHT22;11002;48.256;10.084;2024-01-15T01:51:17;-1.80;75.70
21682;DHT22;11002;48.256;10.084;2024-01-15T01:53:45;-1.80;75.10
21682;DHT22;11002;48.256;10.084;2024-01-15T01:56:13;-1.90;74.50
21682;DHT22;11002;48.256;10.084;2024-01-15T01:58:40;-1.90;74.10
21682;DHT22;11002;48.256;10.084;2024-01-15T02:01:08;-2.00;73.10
21682;DHT22;11002;48.256;10.084;2024-01-15T02:03:36;-1.70;73.30
21682;DHT22;11002;48.256;10.084;2024-01-15T02:06:03;-1.60;73.30
21682;DHT22;11002;48.256;10.084;2024-01-15T02:08:32;-1.80;73.40
21682;DHT22;11002;48.256;10.084;2024-01-15T02:11:00;-1.80;73.00
21682;DHT22;11002;48.256;10.084;2024-01-15T02:13:28;-1.70;72.40
21682;DHT22;11002;48.256;10.084;2024-01-15T02:15:55;-1.80;71.80
21682;DHT22;11002;48.256;10.084;2024-01-15T02:18:23;-1.60;71.10
21682;DHT22;11002;48.256;10.084;2024-01-15T02:20:50;-1.50;70.40
21682;DHT22;11002;48.256;10.084;2024-01-15T02:23:18;-1.60;70.00
21682;DHT22;11002;48.256;10.084;2024-01-15T02:25:46;-1.80;69.90
21682;DHT22;11002;48.256;10.084;2024-01-15T02:28:15;-1.70;69.90
21682;DHT22;11002;48.256;10.084;2024-01-15T02:30:43;-1.70;70.20
21682;DHT22;11002;48.256;10.084;2024-01-15T02:33:11;-1.70;70.40
21682;DHT22;11002;48.256;10.084;2024-01-15T02:35:38;-1.70;70.80
21682;DHT22;11002;48.256;10.084;2024-01-15T02:38:06;-1.80;71.30
21682;DHT22;11002;48.256;10.084;2024-01-15T02:40:35;-1.70;71.50
21682;DHT22;11002;48.256;10.084;2024-01-15T02:43:02;-1.80;71.40
21682;DHT22;11002;48.256;10.084;2024-01-15T02:45:30;-1.60;71.30
21682;DHT22;11002;48.256;10.084;2024-01-15T02:47:57;-1.80;71.10
21682;DHT22;11002;48.256;10.084;2024-01-15T02:50:24;-1.70;70.50
21682;DHT22;11002;48.256;10.084;2024-01-15T02:52:51;-1.80;70.20
21682;DHT22;11002;48.256;10.084;2024-01-15T02:55:18;-1.50;70.50
21682;DHT22;11002;48.256;10.084;2024-01-15T02:57:47;-1.40;70.50
21682;DHT22;11002;48.256;10.084;2024-01-15T03:00:15;-1.80;70.10
21682;DHT22;11002;48.256;10.084;2024-01-15T03:02:45;-1.40;69.90
21682;DHT22;11002;48.256;10.084;2024-01-15T03:05:12;-1.40;69.60
21682;DHT22;11002;48.256;10.084;2024-01-15T03:07:39;-1.60;69.30
21682;DHT22;11002;48.256;10.084;2024-01-15T03:10:07;-1.70;69.10
21682;DHT22;11002;48.256;10.084;2024-01-15T03:12:34;-1.70;69.10
21682;DHT22;11002;48.256;10.084;2024-01-15T03:15:04;-1.50;68.70
21682;DHT22;11002;48.256;10.084;2024-01-15T03:17:31;-1.70;68.20
21682;DHT22;11002;48.256;10.084;2024-01-15T03:19:59;-1.50;68.20
21682;DHT22;11002;48.256;10.084;2024-01-15T03:22:26;-1.70;67.60
21682;DHT22;11002;48.256;10.084;2024-01-15T03:24:53;-1.60;67.30
21682;DHT22;11002;48.256;10.084;2024-01-15T03:27:20;-1.80;67.20
21682;DHT22;11002;48.256;10.084;2024-01-15T03:29:48;-1.50;67.10
21682;DHT22;11002;48.256;10.084;2024-01-15T03:32:16;-1.50;66.30
21682;DHT22;11002;48.256;10.084;2024-01-15T03:34:43;-1.50;65.10
21682;DHT22;11002;48.256;10.084;2024-01-15T03:37:10;-1.60;64.90
21682;DHT22;11002;48.256;10.084;2024-01-15T03:39:38;-1.60;64.70
21682;DHT22;11002;48.256;10.084;2024-01-15T03:42:06;-1.30;64.40
21682;DHT22;11002;48.256;10.084;2024-01-15T03:44:33;-1.50;63.80
21682;DHT22;11002;48.256;10.084;2024-01-15T03:47:01;-1.50;63.80
21682;DHT22;11002;48.256;10.084;2024-01-15T03:49:29;-1.30;63.80
21682;DHT22;11002;48.256;10.084;2024-01-15T03:51:57;-1.30;63.60
21682;DHT22;11002;48.256;10.084;2024-01-15T03:54:24;-1.30;63.30
21682;DHT22;11002;48.256;10.084;2024-01-15T03:56:51;-1.30;62.30
21682;DHT22;11002;48.256;10.084;2024-01-15T03:59:18;-1.30;61.90
21682;DHT22;11002;48.256;10.084;2024-01-15T04:01:48;-1.10;61.50
21682;DHT22;11002;48.256;10.084;2024-01-15T04:04:16;-1.10;60.80
21682;DHT22;11002;48.256;10.084;2024-01-15T04:06:45;-1.30;60.30
21682;DHT22;11002;48.256;10.084;2024-01-15T04:09:13;-1.00;60.00
21682;DHT22;11002;48.256;10.084;2024-01-15T04:11:40;-1.30;59.00
21682;DHT22;11002;48.256;10.084;2024-01-15T04:14:07;-1.00;58.70
21682;DHT22;11002;48.256;10.084;2024-01-15T04:16:34;-1.20;57.10
21682;DHT22;11002;48.256;10.084;2024-01-15T04:19:02;-1.10;57.10
21682;DHT22;11002;48.256;10.084;2024-01-15T04:21:29;-1.10;56.70
21682;DHT22;11002;48.256;10.084;2024-01-15T04:23:58;-1.10;57.20
21682;DHT22;11002;48.256;10.084;2024-01-15T04:26:25;-1.10;56.30
21682;DHT22;11002;48.256;10.084;2024-01-15T04:28:52;-1.00;56.40
21682;DHT22;11002;48.256;10.084;2024-01-15T04:31:23;-0.90;56.10
21682;DHT22;11002;48.256;10.084;2024-01-15T04:33:51;-1.00;55.60
21682;DHT22;11002;48.256;10.084;2024-01-15T04:36:18;-1.00;55.70
21682;DHT22;11002;48.256;10.084;2024-01-15T04:38:45;-1.00;55.20
21682;DHT22;11002;48.256;10.084;2024-01-15T04:41:14;-1.00;54.30
21682;DHT22;11002;48.256;10.084;2024-01-15T04:43:42;-1.00;54.60
21682;DHT22;11002;48.256;10.084;2024-01-15T04:46:10;-1.00;54.40
21682;DHT22;11002;48.256;10.084;2024-01-15T04:48:37;-1.30;54.00
21682;DHT22;11002;48.256;10.084;2024-01-15T04:51:05;-1.30;54.40
21682;DHT22;11002;48.256;10.084;2024-01-15T04:53:34;-1.20;54.70
21682;DHT22;11002;48.256;10.084;2024-01-15T04:56:01;-1.10;54.70
21682;DHT22;11002;48.256;10.084;2024-01-15T04:58:30;-0.80;54.50
21682;DHT22;11002;48.256;10.084;2024-01-15T05:00:57;-0.80;54.20
21682;DHT22;11002;48.256;10.084;2024-01-15T05:03:24;-0.60;53.50
21682;DHT22;11002;48.256;10.084;2024-01-15T05:05:52;-0.80;53.60
21682;DHT22;11002;48.256;10.084;2024-01-15T05:08:19;-0.70;53.40
21682;DHT22;11002;48.256;10.084;2024-01-15T05:10:47;-0.70;52.70
21682;DHT22;11002;48.256;10.084;2024-01-15T05:13:14;-0.70;53.30
21682;DHT22;11002;48.256;10.084;2024-01-15T05:15:43;-0.50;53.20
21682;DHT22;11002;48.256;10.084;2024-01-15T05:18:10;-0.70;53.10
21682;DHT22;11002;48.256;10.084;2024-01-15T05:20:37;-0.50;53.70
21682;DHT22;11002;48.256;10.084;2024-01-15T05:23:04;-0.60;53.70
21682;DHT22;11002;48.256;10.084;2024-01-15T05:25:32;-0.40;54.30
21682;DHT22;11002;48.256;10.084;2024-01-15T05:27:59;-0.60;54.60
21682;DHT22;11002;48.256;10.084;2024-01-15T05:30:27;-0.60;55.10
21682;DHT22;11002;48.256;10.084;2024-01-15T05:32:55;-0.60;55.20
21682;DHT22;11002;48.256;10.084;2024-01-15T05:35:23;-0.60;55.60
21682;DHT22;11002;48.256;10.084;2024-01-15T05:37:50;-0.70;55.80
21682;DHT22;11002;48.256;10.084;2024-01-15T05:40:17;-0.50;56.20
21682;DHT22;11002;48.256;10.084;2024-01-15T05:42:45;-0.50;56.80
21682;DHT22;11002;48.256;10.084;2024-01-15T05:45:12;-0.50;56.90
21682;DHT22;11002;48.256;10.084;2024-01-15T05:47:39;-0.60;57.20
21682;DHT22;11002;48.256;10.084;2024-01-15T05:50:08;-0.40;57.50
21682;DHT22;11002;48.256;10.084;2024-01-15T05:52:35;-0.60;57.20
21682;DHT22;11002;48.256;10.084;2024-01-15T05:55:03;-0.50;57.90
21682;DHT22;11002;48.256;10.084;2024-01-15T05:57:30;-0.70;57.80
21682;DHT22;11002;48.256;10.084;2024-01-15T05:59:57;-0.40;57.70
21682;DHT22;11002;48.256;10.084;2024-01-15T06:02:25;-0.50;58.20
21682;DHT22;11002;48.256;10.084;2024-01-15T06:04:52;-0.60;56.90
21682;DHT22;11002;48.256;10.084;2024-01-15T06:07:20;-0.50;58.40
21682;DHT22;11002;48.256;10.084;2024-01-15T06:09:48;-0.60;59.20
21682;DHT22;11002;48.256;10.084;2024-01-15T06:12:15;-0.40;59.80
21682;DHT22;11002;48.256;10.084;2024-01-15T06:14:43;-0.40;60.50
21682;DHT22;11002;48.256;10.084;2024-01-15T06:17:10;-0.50;60.50
21682;DHT22;11002;48.256;10.084;2024-01-15T06:19:38;-0.60;60.80
21682;DHT22;11002;48.256;10.084;2024-01-15T06:22:05;-0.60;61.10
21682;DHT22;11002;48.256;10.084;2024-01-15T06:24:33;-0.70;60.80
21682;DHT22;11002;48.256;10.084;2024-01-15T06:27:04;-0.60;61.40
21682;DHT22;11002;48.256;10.084;2024-01-15T06:29:32;-0.80;62.20
21682;DHT22;11002;48.256;10.084;2024-01-15T06:31:59;-0.60;62.40
21682;DHT22;11002;48.256;10.084;2024-01-15T06:34:26;-0.70;62.60
21682;DHT22;11002;48.256;10.084;2024-01-15T06:36:53;-0.70;62.20
21682;DHT22;11002;48.256;10.084;2024-01-15T06:39:20;-0.70;63.30
21682;DHT22;11002;48.256;10.084;2024-01-15T06:41:49;-0.60;63.30
21682;DHT22;11002;48.256;10.084;2024-01-15T06:44:16;-0.50;64.00
21682;DHT22;11002;48.256;10.084;2024-01-15T06:46:43;-0.60;63.70
21682;DHT22;11002;48.256;10.084;2024-01-15T06:49:11;-0.50;63.60
21682;DHT22;11002;48.256;10.084;2024-01-15T06:51:38;-0.50;64.10
21682;DHT22;11002;48.256;10.084;2024-01-15T06:54:06;-0.60;63.90
21682;DHT22;11002;48.256;10.084;2024-01-15T06:56:33;-0.70;63.50
21682;DHT22;11002;48.256;10.084;2024-01-15T06:59:02;-0.80;64.00
21682;DHT22;11002;48.256;10.084;2024-01-15T07:01:29;-0.50;63.90
21682;DHT22;11002;48.256;10.084;2024-01-15T07:03:56;-0.60;63.90
21682;DHT22;11002;48.256;10.084;2024-01-15T07:06:24;-0.60;64.00
21682;DHT22;11002;48.256;10.084;2024-01-15T07:08:51;-0.40;64.00
21682;DHT22;11002;48.256;10.084;2024-01-15T07:11:18;-0.60;63.20
21682;DHT22;11002;48.256;10.084;2024-01-15T07:13:45;-0.70;63.00
21682;DHT22;11002;48.256;10.084;2024-01-15T07:16:14;-0.70;62.40
21682;DHT22;11002;48.256;10.084;2024-01-15T07:18:41;-0.50;62.10
21682;DHT22;11002;48.256;10.084;2024-01-15T07:21:08;-0.70;60.90
21682;DHT22;11002;48.256;10.084;2024-01-15T07:23:36;-0.50;61.10
21682;DHT22;11002;48.256;10.084;2024-01-15T07:26:04;-0.40;60.60
21682;DHT22;11002;48.256;10.084;2024-01-15T07:28:35;-0.60;60.20
21682;DHT22;11002;48.256;10.084;2024-01-15T07:31:03;-0.40;60.10
21682;DHT22;11002;48.256;10.084;2024-01-15T07:33:33;-0.50;60.20
21682;DHT22;11002;48.256;10.084;2024-01-15T07:36:00;-0.60;60.10
21682;DHT22;11002;48.256;10.084;2024-01-15T07:38:28;-0.30;60.10
21682;DHT22;11002;48.256;10.084;2024-01-15T07:40:56;-0.60;60.00
21682;DHT22;11002;48.256;10.084;2024-01-15T07:43:23;-0.40;59.80
21682;DHT22;11002;48.256;10.084;2024-01-15T07:45:50;-0.60;59.30
21682;DHT22;11002;48.256;10.084;2024-01-15T07:48:17;-0.60;58.90
21682;DHT22;11002;48.256;10.084;2024-01-15T07:50:46;-0.50;58.40
21682;DHT22;11002;48.256;10.084;2024-01-15T07:53:13;-0.40;58.20
21682;DHT22;11002;48.256;10.084;2024-01-15T07:55:40;-0.40;57.50
21682;DHT22;11002;48.256;10.084;2024-01-15T07:58:07;-0.40;57.00
21682;DHT22;11002;48.256;10.084;2024-01-15T08:00:34;-0.40;57.10
21682;DHT22;11002;48.256;10.084;2024-01-15T08:03:02;-0.30;57.00
21682;DHT22;11002;48.256;10.084;2024-01-15T08:05:29;-0.50;56.80
21682;DHT22;11002;48.256;10.084;2024-01-15T08:07:59;-0.20;57.30
21682;DHT22;11002;48.256;10.084;2024-01-15T08:10:26;-0.20;56.70
21682;DHT22;11002;48.256;10.084;2024-01-15T08:12:53;-0.20;55.30
21682;DHT22;11002;48.256;10.084;2024-01-15T08:15:20;-0.30;55.30
21682;DHT22;11002;48.256;10.084;2024-01-15T08:17:47;-0.40;54.80
21682;DHT22;11002;48.256;10.084;2024-01-15T08:20:15;-0.10;54.60
21682;DHT22;11002;48.256;10.084;2024-01-15T08:22:42;-0.30;54.50
21682;DHT22;11002;48.256;10.084;2024-01-15T08:25:11;-0.40;54.30
21682;DHT22;11002;48.256;10.084;2024-01-15T08:27:38;-0.20;53.70
21682;DHT22;11002;48.256;10.084;2024-01-15T08:30:07;0.00;54.20
21682;DHT22;11002;48.256;10.084;2024-01-15T08:32:34;-0.20;53.50
21682;DHT22;11002;48.256;10.084;2024-01-15T08:35:06;-0.20;53.00
21682;DHT22;11002;48.256;10.084;2024-01-15T08:37:34;-0.10;52.10
21682;DHT22;11002;48.256;10.084;2024-01-15T08:40:01;-0.10;51.40
21682;DHT22;11002;48.256;10.084;2024-01-15T08:42:30;-0.10;51.10
21682;DHT22;11002;48.256;10.084;2024-01-15T08:44:57;0.20;50.20
21682;DHT22;11002;48.256;10.084;2024-01-15T08:47:25;0.00;50.40
21682;DHT22;11002;48.256;10.084;2024-01-15T08:49:53;0.10;50.70
21682;DHT22;11002;48.256;10.084;2024-01-15T08:52:20;0.10;50.00
21682;DHT22;11002;48.256;10.084;2024-01-15T08:54:47;0.20;49.00
21682;DHT22;11002;48.256;10.084;2024-01-15T08:57:14;0.10;47.40
21682;DHT22;11002;48.256;10.084;2024-01-15T08:59:43;0.30;47.40
21682;DHT22;11002;48.256;10.084;2024-01-15T09:02:11;0.20;47.10
21682;DHT22;11002;48.256;10.084;2024-01-15T09:04:38;0.40;46.40
21682;DHT22;11002;48.256;10.084;2024-01-15T09:07:05;0.20;45.40
21682;DHT22;11002;48.256;10.084;2024-01-15T09:09:32;0.30;45.30
21682;DHT22;11002;48.256;10.084;2024-01-15T09:12:00;0.70;45.70
21682;DHT22;11002;48.256;10.084;2024-01-15T09:14:27;0.60;45.50
21682;DHT22;11002;48.256;10.084;2024-01-15T09:16:56;0.70;44.80
21682;DHT22;11002;48.256;10.084;2024-01-15T09:19:26;0.70;44.80
21682;DHT22;11002;48.256;10.084;2024-01-15T09:21:53;0.90;44.40
21682;DHT22;11002;48.256;10.084;2024-01-15T09:24:23;1.10;44.80
21682;DHT22;11002;48.256;10.084;2024-01-15T09:26:51;1.00;44.10
21682;DHT22;11002;48.256;10.084;2024-01-15T09:29:21;1.00;42.40
21682;DHT22;11002;48.256;10.084;2024-01-15T09:31:49;1.20;40.50
21682;DHT22;11002;48.256;10.084;2024-01-15T09:34:18;1.50;41.60
21682;DHT22;11002;48.256;10.084;2024-01-15T09:36:48;2.10;40.50
21682;DHT22;11002;48.256;10.084;2024-01-15T09:39:18;3.10;37.80
21682;DHT22;11002;48.256;10.084;2024-01-15T09:41:45;3.70;35.40
21682;DHT22;11002;48.256;10.084;2024-01-15T09:44:14;4.00;33.90
21682;DHT22;11002;48.256;10.084;2024-01-15T09:46:41;4.30;33.50
21682;DHT22;11002;48.256;10.084;2024-01-15T09:49:13;4.90;31.00
21682;DHT22;11002;48.256;10.084;2024-01-15T09:51:43;5.30;29.20
21682;DHT22;11002;48.256;10.084;2024-01-15T09:54:11;5.50;29.30
21682;DHT22;11002;48.256;10.084;2024-01-15T09:56:45;5.30;28.10
21682;DHT22;11002;48.256;10.084;2024-01-15T09:59:16;4.90;29.30
21682;DHT22;11002;48.256;10.084;2024-01-15T10:01:45;4.70;29.50
21682;DHT22;11002;48.256;10.084;2024-01-15T10:04:14;4.70;29.60
21682;DHT22;11002;48.256;10.084;2024-01-15T10:06:49;4.60;29.80
21682;DHT22;11002;48.256;10.084;2024-01-15T10:09:17;4.50;29.70
21682;DHT22;11002;48.256;10.084;2024-01-15T10:11:46;4.90;30.00
21682;DHT22;11002;48.256;10.084;2024-01-15T10:14:14;5.30;29.70
21682;DHT22;11002;48.256;10.084;2024-01-15T10:16:41;5.50;28.80
21682;DHT22;11002;48.256;10.084;2024-01-15T10:19:09;5.70;27.60
21682;DHT22;11002;48.256;10.084;2024-01-15T10:21:37;5.50;28.40
21682;DHT22;11002;48.256;10.084;2024-01-15T10:24:06;5.30;27.60
21682;DHT22;11002;48.256;10.084;2024-01-15T10:26:33;4.90;28.00
21682;DHT22;11002;48.256;10.084;2024-01-15T10:29:01;4.60;29.80
21682;DHT22;11002;48.256;10.084;2024-01-15T10:31:28;4.30;29.60
21682;DHT22;11002;48.256;10.084;2024-01-15T10:34:10;4.10;29.50
21682;DHT22;11002;48.256;10.084;2024-01-15T10:36:40;4.00;32.40
21682;DHT22;11002;48.256;10.084;2024-01-15T10:39:09;3.60;33.70
21682;DHT22;11002;48.256;10.084;2024-01-15T10:41:41;3.40;35.10
21682;DHT22;11002;48.256;10.084;2024-01-15T10:44:10;3.30;35.10
21682;DHT22;11002;48.256;10.084;2024-01-15T10:46:37;3.20;35.00
21682;DHT22;11002;48.256;10.084;2024-01-15T10:49:05;3.00;35.80
21682;DHT22;11002;48.256;10.084;2024-01-15T10:51:33;2.90;37.60
21682;DHT22;11002;48.256;10.084;2024-01-15T10:54:01;2.90;38.40
21682;DHT22;11002;48.256;10.084;2024-01-15T10:56:30;2.70;39.00
21682;DHT22;11002;48.256;10.084;2024-01-15T10:58:59;2.80;38.60
21682;DHT22;11002;48.256;10.084;2024-01-15T11:01:26;3.00;38.00
21682;DHT22;11002;48.256;10.084;2024-01-15T11:03:55;2.70;38.70
21682;DHT22;11002;48.256;10.084;2024-01-15T11:06:24;2.70;39.40
21682;DHT22;11002;48.256;10.084;2024-01-15T11:08:52;3.00;38.60
21682;DHT22;11002;48.256;10.084;2024-01-15T11:11:21;3.30;36.40
21682;DHT22;11002;48.256;10.084;2024-01-15T11:13:50;3.50;35.30
21682;DHT22;11002;48.256;10.084;2024-01-15T11:16:18;3.30;36.20
21682;DHT22;11002;48.256;10.084;2024-01-15T11:19:03;3.30;36.50
21682;DHT22;11002;48.256;10.084;2024-01-15T11:21:42;3.20;35.10
21682;DHT22;11002;48.256;10.084;2024-01-15T11:24:10;3.10;36.80
21682;DHT22;11002;48.256;10.084;2024-01-15T11:26:58;3.00;38.00
21682;DHT22;11002;48.256;10.084;2024-01-15T11:29:34;3.10;37.50
21682;DHT22;11002;48.256;10.084;2024-01-15T11:32:05;3.00;37.80
21682;DHT22;11002;48.256;10.084;2024-01-15T11:34:52;2.80;38.90
21682;DHT22;11002;48.256;10.084;2024-01-15T11:37:20;3.00;39.50
21682;DHT22;11002;48.256;10.084;2024-01-15T11:39:54;2.60;39.30
21682;DHT22;11002;48.256;10.084;2024-01-15T11:42:22;2.70;41.00
21682;DHT22;11002;48.256;10.084;2024-01-15T11:44:51;2.60;40.80
21682;DHT22;11002;48.256;10.084;2024-01-15T11:50:21;2.70;40.60
21682;DHT22;11002;48.256;10.084;2024-01-15T11:52:56;2.70;40.10
21682;DHT22;11002;48.256;10.084;2024-01-15T11:55:27;2.60;40.90
21682;DHT22;11002;48.256;10.084;2024-01-15T11:57:57;2.70;41.00
21682;DHT22;11002;48.256;10.084;2024-01-15T12:00:31;2.30;40.90
21682;DHT22;11002;48.256;10.084;2024-01-15T12:02:58;2.50;43.00
21682;DHT22;11002;48.256;10.084;2024-01-15T12:05:28;2.50;43.70
21682;DHT22;11002;48.256;10.084;2024-01-15T12:07:58;2.20;43.50
21682;DHT22;11002;48.256;10.084;2024-01-15T12:10:25;2.40;43.90
21682;DHT22;11002;48.256;10.084;2024-01-15T12:13:00;2.30;44.20
21682;DHT22;11002;48.256;10.084;2024-01-15T12:15:29;2.00;44.60
21682;DHT22;11002;48.256;10.084;2024-01-15T12:17:58;2.20;45.10
21682;DHT22;11002;48.256;10.084;2024-01-15T12:20:26;2.20;44.60
21682;DHT22;11002;48.256;10.084;2024-01-15T12:22:53;2.10;44.50
21682;DHT22;11002;48.256;10.084;2024-01-15T12:25:21;2.20;44.20
21682;DHT22;11002;48.256;10.084;2024-01-15T12:27:49;2.10;44.10
21682;DHT22;11002;48.256;10.084;2024-01-15T12:30:17;2.00;44.00
21682;DHT22;11002;48.256;10.084;2024-01-15T12:32:46;2.10;44.40
21682;DHT22;11002;48.256;10.084;2024-01-15T12:35:14;1.90;44.80
21682;DHT22;11002;48.256;10.084;2024-01-15T12:37:43;2.30;45.30
21682;DHT22;11002;48.256;10.084;2024-01-15T12:40:12;2.10;44.60
21682;DHT22;11002;48.256;10.084;2024-01-15T12:42:40;2.20;44.80
21682;DHT22;11002;48.256;10.084;2024-01-15T12:45:10;2.30;46.90
21682;DHT22;11002;48.256;10.084;2024-01-15T12:47:38;2.40;47.00
21682;DHT22;11002;48.256;10.084;2024-01-15T12:50:08;2.30;46.80
21682;DHT22;11002;48.256;10.084;2024-01-15T12:52:36;2.40;47.00
21682;DHT22;11002;48.256;10.084;2024-01-15T12:55:04;2.30;47.00
21682;DHT22;11002;48.256;10.084;2024-01-15T12:57:33;2.10;46.80
21682;DHT22;11002;48.256;10.084;2024-01-15T13:00:01;2.30;50.10
21682;DHT22;11002;48.256;10.084;2024-01-15T13:02:29;2.30;49.10
21682;DHT22;11002;48.256;10.084;2024-01-15T13:04:58;2.30;47.90
21682;DHT22;11002;48.256;10.084;2024-01-15T13:07:27;2.20;47.60
21682;DHT22;11002;48.256;10.084;2024-01-15T13:09:54;1.90;48.60
21682;DHT22;11002;48.256;10.084;2024-01-15T13:12:22;1.90;48.90
21682;DHT22;11002;48.256;10.084;2024-01-15T13:14:49;2.10;49.20
21682;DHT22;11002;48.256;10.084;2024-01-15T13:17:16;1.90;48.90
21682;DHT22;11002;48.256;10.084;2024-01-15T13:19:44;1.90;48.30
21682;DHT22;11002;48.256;10.084;2024-01-15T13:22:11;1.80;48.20
21682;DHT22;11002;48.256;10.084;2024-01-15T13:24:41;1.80;48.80
21682;DHT22;11002;48.256;10.084;2024-01-15T13:27:08;1.80;48.80
21682;DHT22;11002;48.256;10.084;2024-01-15T13:29:36;1.70;48.40
21682;DHT22;11002;48.256;10.084;2024-01-15T13:32:04;1.90;48.10
21682;DHT22;11002;48.256;10.084;2024-01-15T13:34:31;1.80;47.60
21682;DHT22;11002;48.256;10.084;2024-01-15T13:36:59;2.10;47.90
21682;DHT22;11002;48.256;10.084;2024-01-15T13:39:26;1.80;46.50
21682;DHT22;11002;48.256;10.084;2024-01-15T13:41:55;2.10;47.10
21682;DHT22;11002;48.256;10.084;2024-01-15T13:44:22;1.90;47.40
21682;DHT22;11002;48.256;10.084;2024-01-15T13:46:49;1.80;46.70
21682;DHT22;11002;48.256;10.084;2024-01-15T13:49:18;1.80;47.30
21682;DHT22;11002;48.256;10.084;2024-01-15T13:51:45;1.90;48.00
21682;DHT22;11002;48.256;10.084;2024-01-15T13:54:13;1.70;48.40
21682;DHT22;11002;48.256;10.084;2024-01-15T13:56:40;1.80;48.60
21682;DHT22;11002;48.256;10.084;2024-01-15T13:59:09;1.70;48.70
21682;DHT22;11002;48.256;10.084;2024-01-15T14:01:36;2.00;49.00
21682;DHT22;11002;48.256;10.084;2024-01-15T14:04:04;1.90;49.30
21682;DHT22;11002;48.256;10.084;2024-01-15T14:06:31;1.80;48.70
21682;DHT22;11002;48.256;10.084;2024-01-15T14:08:59;1.80;49.50
21682;DHT22;11002;48.256;10.084;2024-01-15T14:11:26;1.80;49.40
21682;DHT22;11002;48.256;10.084;2024-01-15T14:13:53;2.00;49.20
21682;DHT22;11002;48.256;10.084;2024-01-15T14:16:22;1.70;49.40
21682;DHT22;11002;48.256;10.084;2024-01-15T14:18:50;1.80;49.20
21682;DHT22;11002;48.256;10.084;2024-01-15T14:21:17;1.70;49.50
21682;DHT22;11002;48.256;10.084;2024-01-15T14:23:47;1.70;49.50
21682;DHT22;11002;48.256;10.084;2024-01-15T14:26:17;1.90;49.20
21682;DHT22;11002;48.256;10.084;2024-01-15T14:28:44;1.60;49.10
21682;DHT22;11002;48.256;10.084;2024-01-15T14:31:15;1.80;49.30
21682;DHT22;11002;48.256;10.084;2024-01-15T14:33:45;1.70;49.70
21682;DHT22;11002;48.256;10.084;2024-01-15T14:36:13;1.70;49.80
21682;DHT22;11002;48.256;10.084;2024-01-15T14:38:42;1.60;50.30
21682;DHT22;11002;48.256;10.084;2024-01-15T14:41:09;1.50;50.50
21682;DHT22;11002;48.256;10.084;2024-01-15T14:43:36;1.70;51.30
21682;DHT22;11002;48.256;10.084;2024-01-15T14:46:04;1.60;51.30
21682;DHT22;11002;48.256;10.084;2024-01-15T14:48:31;1.50;50.10
21682;DHT22;11002;48.256;10.084;2024-01-15T14:51:00;1.60;51.70
21682;DHT22;11002;48.256;10.084;2024-01-15T14:53:29;1.40;50.50
21682;DHT22;11002;48.256;10.084;2024-01-15T14:55:56;1.60;50.30
21682;DHT22;11002;48.256;10.084;2024-01-15T14:58:23;1.50;49.70
21682;DHT22;11002;48.256;10.084;2024-01-15T15:00:49;1.40;49.70
21682;DHT22;11002;48.256;10.084;2024-01-15T15:03:17;1.40;50.30
21682;DHT22;11002;48.256;10.084;2024-01-15T15:05:44;1.40;49.80
21682;DHT22;11002;48.256;10.084;2024-01-15T15:08:13;1.70;49.90
21682;DHT22;11002;48.256;10.084;2024-01-15T15:10:40;1.40;50.00
21682;DHT22;11002;48.256;10.084;2024-01-15T15:13:08;1.30;49.90
21682;DHT22;11002;48.256;10.084;2024-01-15T15:15:35;1.40;50.30
21682;DHT22;11002;48.256;10.084;2024-01-15T15:18:03;1.30;50.90
21682;DHT22;11002;48.256;10.084;2024-01-15T15:20:30;1.40;51.40
21682;DHT22;11002;48.256;10.084;2024-01-15T15:22:57;1.30;52.20
21682;DHT22;11002;48.256;10.084;2024-01-15T15:25:26;1.10;52.10
21682;DHT22;11002;48.256;10.084;2024-01-15T15:27:55;1.10;52.80
21682;DHT22;11002;48.256;10.084;2024-01-15T15:30:22;1.10;54.80